Time;durP1;ratioP1;P1;durP2;ratioP2;P2;SDS_P1;SDS_P2;PMS_P1;PMS_P2;Temp;Humidity;BMP_temperature;BMP_pressure;BME280_temperature;BME280_humidity;BME280_pressure;Samples;Min_cycle;Max_cycle;Signal;HPM_P1;HPM_P2
2021/10/23 00:01:25;;;;;;;3.93;0.63;;;5.50;99.90;;;;;;6126534;23;20069;-77
2021/10/23 00:03:51;;;;;;;3.07;1.00;;;5.60;99.90;;;;;;6126043;23;20022;-75
2021/10/23 00:06:18;;;;;;;3.40;0.53;;;5.50;99.90;;;;;;6126558;23;20318;-72
2021/10/23 00:08:45;;;;;;;8.33;1.07;;;5.50;99.90;;;;;;6126316;23;20073;-71
2021/10/23 00:11:13;;;;;;;2.30;0.73;;;5.50;99.90;;;;;;6126366;23;20101;-73
2021/10/23 00:13:39;;;;;;;0.43;0.40;;;5.60;99.90;;;;;;6126213;23;20034;-72
2021/10/23 00:16:06;;;;;;;3.53;0.70;;;5.50;99.90;;;;;;6126865;23;20390;-73
2021/10/23 00:18:32;;;;;;;4.10;0.83;;;5.50;99.90;;;;;;6126229;23;20081;-78
2021/10/23 00:20:59;;;;;;;3.63;0.93;;;5.50;99.90;;;;;;6127031;23;20053;-74
2021/10/23 00:23:26;;;;;;;5.03;1.33;;;5.60;99.90;;;;;;6125727;23;20365;-72
2021/10/23 00:25:52;;;;;;;1.67;0.70;;;5.60;99.90;;;;;;6126341;23;20452;-70
2021/10/23 00:28:20;;;;;;;2.07;0.87;;;5.60;99.90;;;;;;6126263;23;20025;-76
2021/10/23 00:30:47;;;;;;;1.70;1.53;;;5.50;99.90;;;;;;6126533;23;20266;-72
2021/10/23 00:33:14;;;;;;;2.90;0.90;;;5.60;99.90;;;;;;6125836;23;20022;-74
2021/10/23 00:35:40;;;;;;;7.00;1.47;;;5.60;99.90;;;;;;6126660;23;20081;-72
2021/10/23 00:38:07;;;;;;;5.27;1.10;;;5.50;99.90;;;;;;6126723;23;20069;-73
2021/10/23 00:40:34;;;;;;;3.00;0.80;;;5.50;99.90;;;;;;6126029;23;20469;-73
2021/10/23 00:43:00;;;;;;;6.70;0.87;;;5.60;99.90;;;;;;6126144;23;20077;-70
2021/10/23 00:45:28;;;;;;;3.97;0.80;;;5.50;99.90;;;;;;6125667;23;20054;-71
2021/10/23 00:47:55;;;;;;;3.90;0.57;;;5.50;99.90;;;;;;6126598;23;20021;-70
2021/10/23 00:50:22;;;;;;;1.13;0.80;;;5.50;99.90;;;;;;6126054;23;20018;-70
2021/10/23 00:52:49;;;;;;;3.70;1.00;;;5.50;99.90;;;;;;6126194;23;20021;-71
2021/10/23 00:55:16;;;;;;;8.07;0.87;;;5.50;99.90;;;;;;6125702;23;20093;-72
2021/10/23 00:57:43;;;;;;;6.00;0.70;;;5.50;99.90;;;;;;6126392;23;20073;-71
2021/10/23 01:00:10;;;;;;;5.00;0.97;;;5.50;99.90;;;;;;6126045;23;20333;-71
2021/10/23 01:02:38;;;;;;;3.40;0.97;;;5.50;99.90;;;;;;6125658;23;20081;-73
2021/10/23 01:05:07;;;;;;;1.73;0.60;;;5.50;99.90;;;;;;6125162;23;20021;-73
2021/10/23 01:07:35;;;;;;;9.77;1.57;;;5.50;99.90;;;;;;6125506;23;20456;-73
2021/10/23 01:10:04;;;;;;;1.60;0.50;;;5.60;99.90;;;;;;6125697;23;20057;-72
2021/10/23 01:12:31;;;;;;;3.30;0.50;;;5.50;99.90;;;;;;6125981;23;20026;-72
2021/10/23 01:14:58;;;;;;;4.10;0.90;;;5.50;99.90;;;;;;6125818;23;20022;-75
2021/10/23 01:17:24;;;;;;;1.87;0.80;;;5.50;99.90;;;;;;6126159;23;20454;-72
2021/10/23 01:19:53;;;;;;;4.33;1.33;;;5.50;99.90;;;;;;6125922;23;20417;-73
2021/10/23 01:22:28;;;;;;;6.93;0.83;;;5.40;99.90;;;;;;6125849;23;20049;-74
2021/10/23 01:24:55;;;;;;;0.93;0.53;;;5.40;99.90;;;;;;6125488;23;20026;-71
2021/10/23 01:27:22;;;;;;;1.00;0.90;;;5.40;99.90;;;;;;6125617;23;20022;-71
2021/10/23 01:29:48;;;;;;;0.60;0.23;;;5.30;99.90;;;;;;6125630;23;20084;-70
2021/10/23 01:32:15;;;;;;;8.63;1.67;;;5.30;99.90;;;;;;6125682;23;20085;-71
2021/10/23 01:34:42;;;;;;;6.23;1.77;;;5.30;99.90;;;;;;6125048;23;20022;-71
2021/10/23 01:37:10;;;;;;;1.43;0.40;;;5.40;99.90;;;;;;6125705;23;20398;-71
2021/10/23 01:39:37;;;;;;;6.03;1.40;;;5.40;99.90;;;;;;6125755;23;20076;-72
2021/10/23 01:42:04;;;;;;;1.90;1.00;;;5.40;99.90;;;;;;6125999;23;20017;-76
2021/10/23 01:44:33;;;;;;;2.23;0.77;;;5.40;99.90;;;;;;6125223;23;20026;-72
2021/10/23 01:47:00;;;;;;;2.80;0.63;;;5.40;99.90;;;;;;6126057;23;20026;-78
2021/10/23 01:49:27;;;;;;;5.37;1.07;;;5.40;99.90;;;;;;6125545;23;20022;-74
2021/10/23 01:51:53;;;;;;;0.33;0.27;;;5.30;99.90;;;;;;6125578;23;20369;-72
2021/10/23 01:54:21;;;;;;;1.83;0.50;;;5.40;99.90;;;;;;6125248;23;20021;-71
2021/10/23 01:56:48;;;;;;;6.00;0.90;;;5.30;99.90;;;;;;6125701;23;20077;-72
2021/10/23 01:59:15;;;;;;;12.43;1.63;;;5.30;99.90;;;;;;6124348;23;20392;-71
2021/10/23 02:01:41;;;;;;;8.00;1.23;;;5.20;99.90;;;;;;6125101;23;20516;-77
2021/10/23 02:04:08;;;;;;;4.93;1.03;;;5.30;99.90;;;;;;6125116;23;20081;-73
2021/10/23 02:06:34;;;;;;;13.33;1.33;;;5.40;99.90;;;;;;6125408;23;20069;-71
2021/10/23 02:09:03;;;;;;;5.00;0.87;;;5.40;99.90;;;;;;6124958;23;20025;-71
2021/10/23 02:11:31;;;;;;;2.70;1.53;;;5.30;99.90;;;;;;6125261;23;20022;-71
2021/10/23 02:13:57;;;;;;;2.77;0.97;;;5.30;99.90;;;;;;6124695;23;20026;-70
2021/10/23 02:16:24;;;;;;;3.70;0.70;;;5.30;99.90;;;;;;6125105;23;20318;-70
2021/10/23 02:18:51;;;;;;;4.40;0.90;;;5.30;99.90;;;;;;6124875;23;20487;-71
2021/10/23 02:21:18;;;;;;;1.57;0.53;;;5.30;99.90;;;;;;6125390;23;20076;-72
2021/10/23 02:23:45;;;;;;;5.70;0.80;;;5.20;99.90;;;;;;6124737;23;20022;-74
2021/10/23 02:26:11;;;;;;;2.00;0.80;;;5.20;99.90;;;;;;6125499;23;20030;-76
2021/10/23 02:28:39;;;;;;;5.13;0.80;;;5.20;99.90;;;;;;6125256;23;20069;-72
2021/10/23 02:31:06;;;;;;;4.23;1.60;;;5.30;99.90;;;;;;6125669;23;20464;-76
2021/10/23 02:33:33;;;;;;;6.63;0.90;;;5.30;99.90;;;;;;6126046;23;20018;-72
2021/10/23 02:36:00;;;;;;;2.17;0.57;;;5.20;99.90;;;;;;6125779;23;20022;-73
2021/10/23 02:38:26;;;;;;;1.70;0.77;;;5.20;99.90;;;;;;6125401;23;20536;-76
2021/10/23 02:40:53;;;;;;;6.93;1.43;;;5.20;99.90;;;;;;6126577;23;20073;-72
2021/10/23 02:43:20;;;;;;;2.70;0.80;;;5.30;99.90;;;;;;6125000;23;20053;-73
2021/10/23 02:45:48;;;;;;;1.23;0.67;;;5.30;99.90;;;;;;6125601;23;20022;-71
2021/10/23 02:48:14;;;;;;;6.10;0.90;;;5.30;99.90;;;;;;6125297;23;20523;-71
2021/10/23 02:50:41;;;;;;;3.23;0.60;;;5.30;99.90;;;;;;6125256;23;20100;-70
2021/10/23 02:53:08;;;;;;;10.13;1.07;;;5.30;99.90;;;;;;6125039;23;20022;-70
2021/10/23 02:55:35;;;;;;;8.63;1.07;;;5.30;99.90;;;;;;6125292;23;20025;-69
2021/10/23 02:58:02;;;;;;;5.30;1.90;;;5.30;99.90;;;;;;6125010;23;20025;-70
2021/10/23 03:00:29;;;;;;;9.10;1.53;;;5.30;99.90;;;;;;6125315;23;20026;-71
2021/10/23 03:02:57;;;;;;;3.33;1.00;;;5.30;99.90;;;;;;6125031;23;20022;-72
2021/10/23 03:05:23;;;;;;;3.70;0.87;;;5.30;99.90;;;;;;6124339;23;20562;-72
2021/10/23 03:07:50;;;;;;;1.40;0.70;;;5.20;99.90;;;;;;6125066;23;20077;-72
2021/10/23 03:10:17;;;;;;;2.10;0.67;;;5.20;99.90;;;;;;6124721;23;20404;-73
2021/10/23 03:12:43;;;;;;;1.97;0.80;;;5.20;99.90;;;;;;6124872;23;20025;-73
2021/10/23 03:15:10;;;;;;;6.33;1.77;;;5.20;99.90;;;;;;6124579;23;20022;-71
2021/10/23 03:17:37;;;;;;;11.93;1.63;;;5.20;99.90;;;;;;6124957;23;20022;-72
2021/10/23 03:20:07;;;;;;;5.30;1.47;;;5.30;99.90;;;;;;6124836;23;20046;-75
2021/10/23 03:22:33;;;;;;;5.33;0.60;;;5.30;99.90;;;;;;6124937;23;20026;-72
2021/10/23 03:25:00;;;;;;;1.27;0.40;;;5.20;99.90;;;;;;6124458;23;20049;-77
2021/10/23 03:27:27;;;;;;;7.10;1.30;;;5.20;99.90;;;;;;6125645;23;20092;-73
2021/10/23 03:29:54;;;;;;;6.10;0.83;;;5.20;99.90;;;;;;6126659;23;20022;-71
2021/10/23 03:32:22;;;;;;;4.70;1.17;;;5.20;99.90;;;;;;6126989;23;20624;-71
2021/10/23 03:34:49;;;;;;;4.63;1.33;;;5.20;99.90;;;;;;6126050;23;20524;-72
2021/10/23 03:37:17;;;;;;;13.13;1.80;;;5.20;99.90;;;;;;6127335;23;20022;-74
2021/10/23 03:39:43;;;;;;;3.20;0.90;;;5.30;99.90;;;;;;6127109;23;20018;-77
2021/10/23 03:42:10;;;;;;;3.57;0.90;;;5.40;99.90;;;;;;6127051;23;20077;-74
2021/10/23 03:44:37;;;;;;;7.33;1.20;;;5.40;99.90;;;;;;6126321;23;20417;-71
2021/10/23 03:47:04;;;;;;;4.20;1.07;;;5.40;99.90;;;;;;6126462;23;20528;-71
2021/10/23 03:49:30;;;;;;;4.97;1.43;;;5.40;99.90;;;;;;6126345;23;20472;-73
2021/10/23 03:51:58;;;;;;;7.07;0.93;;;5.40;99.90;;;;;;6126700;23;20026;-72
2021/10/23 03:54:26;;;;;;;3.67;1.30;;;5.50;99.90;;;;;;6126198;23;20022;-70
2021/10/23 03:56:52;;;;;;;6.60;1.63;;;5.30;99.90;;;;;;6126917;23;20030;-71
2021/10/23 03:59:19;;;;;;;2.87;0.77;;;5.40;99.90;;;;;;6126697;23;20065;-75
2021/10/23 04:01:46;;;;;;;3.73;0.67;;;5.40;99.90;;;;;;6126466;23;20018;-70
2021/10/23 04:04:12;;;;;;;2.10;1.47;;;5.40;99.90;;;;;;6125890;23;20030;-72
2021/10/23 04:06:39;;;;;;;2.87;1.53;;;5.40;99.90;;;;;;6126422;23;20421;-71
2021/10/23 04:09:05;;;;;;;1.07;0.83;;;5.40;99.90;;;;;;6126359;23;20101;-71
2021/10/23 04:11:33;;;;;;;2.03;1.20;;;5.40;99.90;;;;;;6126447;23;20104;-73
2021/10/23 04:14:00;;;;;;;3.10;0.97;;;5.40;99.90;;;;;;6125978;23;20022;-77
2021/10/23 04:16:27;;;;;;;2.10;0.63;;;5.40;99.90;;;;;;6126544;23;20092;-73
2021/10/23 04:18:53;;;;;;;3.17;0.67;;;5.40;99.90;;;;;;6126315;23;20025;-74
2021/10/23 04:21:20;;;;;;;4.70;1.27;;;5.40;99.90;;;;;;6126682;23;20090;-71
2021/10/23 04:23:46;;;;;;;6.40;0.73;;;5.40;99.90;;;;;;6125971;23;20022;-72
2021/10/23 04:26:13;;;;;;;0.80;0.80;;;5.40;99.90;;;;;;6126292;23;20089;-77
2021/10/23 04:28:41;;;;;;;3.23;0.63;;;5.50;99.90;;;;;;6126419;23;20070;-72
2021/10/23 04:31:08;;;;;;;8.23;1.67;;;5.50;99.90;;;;;;6126380;23;20077;-75
2021/10/23 04:33:35;;;;;;;3.13;0.60;;;5.50;99.90;;;;;;6125858;23;20026;-73
2021/10/23 04:36:01;;;;;;;3.07;1.07;;;5.60;99.90;;;;;;6126338;23;20026;-72
2021/10/23 04:38:28;;;;;;;4.70;0.90;;;5.50;99.90;;;;;;6125765;23;20022;-78
2021/10/23 04:40:54;;;;;;;2.83;0.87;;;5.60;99.90;;;;;;6126478;23;20396;-74
2021/10/23 04:43:21;;;;;;;1.03;0.53;;;5.60;99.90;;;;;;6125568;23;20068;-70
2021/10/23 04:45:49;;;;;;;1.87;0.50;;;5.70;99.90;;;;;;6126200;23;20073;-70
2021/10/23 04:48:16;;;;;;;3.27;1.73;;;5.70;99.90;;;;;;6126027;23;20069;-70
2021/10/23 04:50:42;;;;;;;2.97;1.17;;;5.60;99.90;;;;;;6126223;23;20073;-69
2021/10/23 04:53:09;;;;;;;2.33;1.13;;;5.60;99.90;;;;;;6125541;23;20119;-70
2021/10/23 04:55:36;;;;;;;4.07;1.20;;;5.60;99.90;;;;;;6125249;23;20523;-76
2021/10/23 04:58:02;;;;;;;4.33;0.97;;;5.50;99.90;;;;;;6126463;23;20022;-72
2021/10/23 05:00:29;;;;;;;9.50;1.27;;;5.50;99.90;;;;;;6125932;23;20050;-71
2021/10/23 05:02:57;;;;;;;4.83;0.80;;;5.50;99.90;;;;;;6125463;23;20329;-71
2021/10/23 05:05:23;;;;;;;6.90;1.07;;;5.50;99.90;;;;;;6125421;23;20096;-72
2021/10/23 05:07:50;;;;;;;6.03;0.60;;;5.50;99.90;;;;;;6125907;23;20029;-70
2021/10/23 05:10:18;;;;;;;5.00;0.60;;;5.50;99.90;;;;;;6125452;23;20071;-73
2021/10/23 05:12:45;;;;;;;3.70;1.00;;;5.40;99.90;;;;;;6125797;23;20018;-71
2021/10/23 05:15:11;;;;;;;2.20;0.83;;;5.40;99.90;;;;;;6125157;23;20029;-73
2021/10/23 05:17:38;;;;;;;5.00;0.90;;;5.40;99.90;;;;;;6125851;23;20115;-71
2021/10/23 05:20:07;;;;;;;3.60;1.20;;;5.40;99.90;;;;;;6125312;23;20022;-71
2021/10/23 05:22:34;;;;;;;0.40;0.40;;;5.40;99.90;;;;;;6125440;23;20349;-70
2021/10/23 05:25:01;;;;;;;2.57;1.00;;;5.40;99.90;;;;;;6125098;23;20401;-71
2021/10/23 05:27:27;;;;;;;7.97;1.60;;;5.40;99.90;;;;;;6125766;23;20018;-71
2021/10/23 05:29:54;;;;;;;11.83;1.70;;;5.40;99.90;;;;;;6125649;23;20022;-71
2021/10/23 05:32:20;;;;;;;7.23;1.53;;;5.40;99.90;;;;;;6125679;23;20022;-71
2021/10/23 05:34:47;;;;;;;5.83;1.60;;;5.40;99.90;;;;;;6125056;23;20069;-73
2021/10/23 05:37:16;;;;;;;8.50;1.40;;;5.40;99.90;;;;;;6125314;23;20080;-71
2021/10/23 05:39:43;;;;;;;6.10;1.87;;;5.40;99.90;;;;;;6125651;23;20022;-72
2021/10/23 05:42:09;;;;;;;2.73;1.53;;;5.40;99.90;;;;;;6126407;23;20396;-70
2021/10/23 05:44:36;;;;;;;5.90;3.97;;;5.40;99.90;;;;;;6124897;23;20022;-72
2021/10/23 05:47:03;;;;;;;16.27;5.07;;;5.30;99.90;;;;;;6125793;23;20026;-70
2021/10/23 05:49:30;;;;;;;3.23;1.37;;;5.30;99.90;;;;;;6125021;23;20401;-71
2021/10/23 05:51:56;;;;;;;4.27;1.17;;;5.20;99.90;;;;;;6125532;23;20022;-75
2021/10/23 05:54:24;;;;;;;3.90;1.37;;;5.20;99.90;;;;;;6124837;23;20094;-71
2021/10/23 05:56:51;;;;;;;6.57;0.93;;;5.30;99.90;;;;;;6125397;23;20017;-74
2021/10/23 05:59:17;;;;;;;4.50;0.67;;;5.30;99.90;;;;;;6124937;23;20473;-73
2021/10/23 06:01:46;;;;;;;3.13;0.97;;;5.30;99.90;;;;;;6125553;23;20100;-71
2021/10/23 06:04:14;;;;;;;3.37;1.17;;;5.40;99.90;;;;;;6124969;23;20030;-71
2021/10/23 06:06:41;;;;;;;0.83;0.53;;;5.30;99.90;;;;;;6125390;23;20026;-70
2021/10/23 06:09:07;;;;;;;4.43;0.70;;;5.40;99.90;;;;;;6125337;23;20022;-71
2021/10/23 06:11:35;;;;;;;6.70;1.30;;;5.40;99.90;;;;;;6125429;23;20022;-77
2021/10/23 06:14:04;;;;;;;6.60;1.20;;;5.50;99.90;;;;;;6124754;23;20080;-72
2021/10/23 06:16:31;;;;;;;2.57;0.93;;;5.50;99.90;;;;;;6125465;23;20394;-75
2021/10/23 06:18:58;;;;;;;4.13;0.47;;;5.50;99.90;;;;;;6124991;23;20487;-71
2021/10/23 06:21:24;;;;;;;4.53;1.10;;;5.70;99.90;;;;;;6125323;23;20076;-71
2021/10/23 06:23:51;;;;;;;6.47;1.00;;;5.90;99.90;;;;;;6124544;23;20030;-70
2021/10/23 06:26:17;;;;;;;4.63;1.30;;;6.10;99.90;;;;;;6125063;23;20021;-69
2021/10/23 06:28:45;;;;;;;4.87;1.17;;;6.30;99.90;;;;;;6125029;23;20018;-69
2021/10/23 06:31:12;;;;;;;4.80;1.30;;;6.30;99.90;;;;;;6125085;23;20022;-70
2021/10/23 06:33:39;;;;;;;3.20;0.87;;;6.60;99.90;;;;;;6124573;23;20029;-70
2021/10/23 06:36:05;;;;;;;2.87;0.83;;;6.80;99.90;;;;;;6125065;23;20388;-70
2021/10/23 06:38:32;;;;;;;2.83;1.07;;;6.80;99.90;;;;;;6125103;23;20439;-71
2021/10/23 06:40:58;;;;;;;4.50;1.20;;;6.70;99.90;;;;;;6125005;23;20084;-70
2021/10/23 06:43:25;;;;;;;3.67;1.10;;;6.50;99.90;;;;;;6124487;23;20021;-71
2021/10/23 06:45:54;;;;;;;3.30;1.47;;;6.40;99.90;;;;;;6124520;23;20464;-71
2021/10/23 06:48:20;;;;;;;10.93;1.93;;;6.70;99.90;;;;;;6125045;23;20018;-70
2021/10/23 06:50:47;;;;;;;6.37;1.57;;;6.90;99.90;;;;;;6125107;23;20122;-70
2021/10/23 06:53:14;;;;;;;3.13;0.73;;;7.20;99.90;;;;;;6124287;23;20538;-77
2021/10/23 06:55:40;;;;;;;4.50;1.17;;;7.50;99.90;;;;;;6125150;23;20050;-71
2021/10/23 06:58:07;;;;;;;2.42;0.88;;;7.80;99.90;;;;;;6125446;23;20385;-72
2021/10/23 07:00:34;;;;;;;3.42;0.55;;;8.20;99.90;;;;;;6125042;23;20076;-72
2021/10/23 07:03:02;;;;;;;1.50;0.77;;;8.50;99.90;;;;;;6124610;23;20018;-75
2021/10/23 07:05:30;;;;;;;5.32;0.98;;;8.60;99.90;;;;;;6124562;23;20022;-69
2021/10/23 07:07:57;;;;;;;6.28;3.22;;;8.80;99.90;;;;;;6124364;23;20322;-71
2021/10/23 07:10:23;;;;;;;12.93;2.70;;;9.10;99.90;;;;;;6124445;23;20034;-70
2021/10/23 07:12:51;;;;;;;5.28;1.50;;;9.20;99.90;;;;;;6124897;23;20345;-70
2021/10/23 07:15:17;;;;;;;5.18;1.00;;;9.40;99.90;;;;;;6124254;23;20022;-69
2021/10/23 07:17:44;;;;;;;6.00;0.90;;;9.40;99.90;;;;;;6124948;23;20080;-71
2021/10/23 07:20:13;;;;;;;4.70;0.77;;;9.60;99.90;;;;;;6124763;23;20022;-70
2021/10/23 07:22:40;;;;;;;14.95;4.32;;;9.70;99.90;;;;;;6124671;23;20049;-69
2021/10/23 07:25:08;;;;;;;6.43;2.88;;;9.70;99.90;;;;;;6124128;23;20022;-69
2021/10/23 07:27:35;;;;;;;13.20;4.50;;;9.90;99.90;;;;;;6124669;23;20026;-69
2021/10/23 07:30:02;;;;;;;16.88;7.25;;;10.20;99.90;;;;;;6124659;23;20046;-69
2021/10/23 07:32:29;;;;;;;9.43;3.67;;;10.70;99.90;;;;;;6125424;23;20022;-73
2021/10/23 07:34:56;;;;;;;11.35;4.53;;;11.00;99.90;;;;;;6124311;23;20341;-72
2021/10/23 07:37:23;;;;;;;7.97;4.35;;;11.00;99.90;;;;;;6124709;23;20022;-72
2021/10/23 07:39:50;;;;;;;8.93;3.13;;;11.00;99.90;;;;;;6124940;23;20077;-73
2021/10/23 07:42:17;;;;;;;7.88;1.40;;;11.00;99.90;;;;;;6124689;23;20388;-72
2021/10/23 07:44:43;;;;;;;7.70;1.80;;;11.00;99.90;;;;;;6123732;23;20453;-70
2021/10/23 07:47:11;;;;;;;4.70;1.23;;;11.70;99.90;;;;;;6124263;23;20481;-70
2021/10/23 07:49:38;;;;;;;3.65;1.70;;;11.60;99.90;;;;;;6124639;23;20018;-70
2021/10/23 07:52:05;;;;;;;4.45;0.95;;;11.60;99.90;;;;;;6124510;23;20066;-70
2021/10/23 07:54:33;;;;;;;2.22;0.80;;;11.90;99.90;;;;;;6124182;23;20018;-70
2021/10/23 07:57:00;;;;;;;4.97;1.10;;;12.40;99.90;;;;;;6124582;23;20021;-70
2021/10/23 07:59:27;;;;;;;4.15;0.70;;;12.50;99.90;;;;;;6125038;23;20101;-71
2021/10/23 08:01:55;;;;;;;4.05;1.17;;;12.90;99.90;;;;;;6125010;23;20104;-70
2021/10/23 08:04:22;;;;;;;6.20;1.20;;;13.60;99.90;;;;;;6124139;23;20389;-69
2021/10/23 08:06:48;;;;;;;8.52;1.38;;;12.50;99.90;;;;;;6124408;23;20021;-70
2021/10/23 08:09:15;;;;;;;2.05;1.30;;;12.20;99.90;;;;;;6123925;23;20026;-71
2021/10/23 08:11:44;;;;;;;3.72;0.73;;;12.20;99.90;;;;;;6124773;23;20081;-72
2021/10/23 08:14:11;;;;;;;4.00;0.90;;;13.20;99.90;;;;;;6125925;23;20022;-70
2021/10/23 08:16:38;;;;;;;8.50;2.13;;;12.90;99.90;;;;;;6127114;23;20018;-73
2021/10/23 08:19:05;;;;;;;2.72;1.48;;;12.70;99.90;;;;;;6128200;23;20025;-72
2021/10/23 08:21:32;;;;;;;3.75;0.70;;;13.20;99.90;;;;;;6129084;23;20057;-72
2021/10/23 08:23:58;;;;;;;3.40;0.50;;;13.20;99.90;;;;;;6127862;23;20057;-71
2021/10/23 08:26:25;;;;;;;3.22;1.48;;;13.80;99.90;;;;;;6127271;23;20081;-71
2021/10/23 08:28:54;;;;;;;3.50;0.80;;;14.40;99.90;;;;;;6126488;23;20022;-69
2021/10/23 08:31:21;;;;;;;3.22;0.73;;;14.60;99.90;;;;;;6126181;23;20022;-69
2021/10/23 08:33:48;;;;;;;6.53;0.85;;;15.10;99.90;;;;;;6125482;23;20018;-68
2021/10/23 08:36:14;;;;;;;5.75;1.10;;;15.20;99.60;;;;;;6126146;23;20084;-69
2021/10/23 08:38:43;;;;;;;3.50;0.80;;;14.60;99.00;;;;;;6126067;23;20073;-69
2021/10/23 08:41:11;;;;;;;4.55;1.23;;;13.40;99.90;;;;;;6126205;23;20018;-69
2021/10/23 08:43:39;;;;;;;6.45;1.05;;;13.10;99.90;;;;;;6125593;23;20022;-69
2021/10/23 08:46:09;;;;;;;4.32;1.08;;;12.60;99.90;;;;;;6126653;23;20081;-70
2021/10/23 08:48:36;;;;;;;2.85;0.93;;;12.00;99.90;;;;;;6126593;23;20092;-73
2021/10/23 08:51:03;;;;;;;8.98;2.63;;;11.90;99.90;;;;;;6126952;23;20029;-70
2021/10/23 08:53:30;;;;;;;5.95;1.20;;;11.90;99.90;;;;;;6126050;23;20026;-74
2021/10/23 08:55:57;;;;;;;3.92;1.02;;;11.70;99.90;;;;;;6126760;23;20026;-70
2021/10/23 08:58:23;;;;;;;7.25;1.33;;;11.80;99.90;;;;;;6126545;23;20026;-71
2021/10/23 09:00:50;;;;;;;3.53;1.13;;;12.10;99.90;;;;;;6126090;23;20026;-71
2021/10/23 09:03:18;;;;;;;6.93;1.70;;;12.00;99.90;;;;;;6125189;23;20319;-68
2021/10/23 09:05:45;;;;;;;3.35;1.08;;;11.60;99.90;;;;;;6125794;23;20021;-68
2021/10/23 09:08:14;;;;;;;3.65;1.73;;;11.60;99.90;;;;;;6125056;23;20449;-70
2021/10/23 09:10:47;;;;;;;3.78;1.45;;;11.70;99.90;;;;;;6125783;23;20097;-71
2021/10/23 09:13:14;;;;;;;6.32;1.42;;;11.40;99.90;;;;;;6125012;23;20073;-71
2021/10/23 09:15:42;;;;;;;2.85;1.25;;;11.40;99.90;;;;;;6125817;23;20077;-73
2021/10/23 09:18:10;;;;;;;4.88;1.00;;;11.50;99.90;;;;;;6125569;23;20029;-70
2021/10/23 09:20:40;;;;;;;4.20;1.20;;;11.20;99.90;;;;;;6125674;23;20021;-70
2021/10/23 09:23:17;;;;;;;6.30;1.10;;;11.20;99.90;;;;;;6125339;23;20018;-70
2021/10/23 09:25:44;;;;;;;11.10;0.85;;;11.60;99.90;;;;;;6125403;23;20025;-71
2021/10/23 09:28:13;;;;;;;6.10;1.23;;;11.90;99.90;;;;;;6125166;23;20531;-70
2021/10/23 09:30:41;;;;;;;8.25;1.38;;;11.80;99.90;;;;;;6125651;23;20018;-70
2021/10/23 09:33:10;;;;;;;10.75;5.30;;;11.50;99.90;;;;;;6125144;23;20097;-71
2021/10/23 09:35:39;;;;;;;11.73;2.25;;;11.60;99.90;;;;;;6125695;23;20389;-70
2021/10/23 09:38:07;;;;;;;2.58;1.02;;;11.60;99.90;;;;;;6125646;23;20029;-71
2021/10/23 09:40:36;;;;;;;1.45;0.77;;;11.90;99.90;;;;;;6125319;23;20468;-72
2021/10/23 09:43:14;;;;;;;1.83;0.80;;;12.10;99.90;;;;;;6125676;23;20022;-72
2021/10/23 09:46:01;;;;;;;6.85;1.20;;;12.60;99.90;;;;;;6125793;23;20064;-72
2021/10/23 09:48:30;;;;;;;5.28;0.82;;;12.60;99.90;;;;;;6125282;23;20026;-76
2021/10/23 09:51:12;;;;;;;4.60;1.20;;;13.00;99.90;;;;;;6125142;23;20536;-73
2021/10/23 09:53:39;;;;;;;5.82;2.08;;;13.50;99.90;;;;;;6124870;23;20077;-72
2021/10/23 09:56:07;;;;;;;7.13;1.75;;;14.80;99.90;;;;;;6125218;23;20018;-71
2021/10/23 09:58:35;;;;;;;3.22;0.90;;;16.00;99.90;;;;;;6125694;23;20061;-70
2021/10/23 10:01:02;;;;;;;4.28;1.02;;;16.80;96.20;;;;;;6125537;23;20049;-72
2021/10/23 10:03:29;;;;;;;7.25;1.27;;;17.50;94.50;;;;;;6124649;23;20476;-72
2021/10/23 10:05:57;;;;;;;2.20;0.80;;;18.60;91.10;;;;;;6125626;23;20028;-72
2021/10/23 10:08:27;;;;;;;4.07;1.40;;;18.70;85.40;;;;;;6125121;23;20384;-73
2021/10/23 10:10:55;;;;;;;4.60;0.85;;;18.10;86.50;;;;;;6124984;23;20464;-76
2021/10/23 10:13:23;;;;;;;4.75;1.05;;;19.00;85.60;;;;;;6124823;23;20022;-71
2021/10/23 10:15:51;;;;;;;4.15;1.33;;;19.40;80.70;;;;;;6125437;23;20046;-72
2021/10/23 10:18:19;;;;;;;3.05;1.25;;;20.30;76.60;;;;;;6125254;23;20018;-71
2021/10/23 10:20:48;;;;;;;5.80;1.08;;;20.70;73.40;;;;;;6125337;23;20022;-68
2021/10/23 10:23:17;;;;;;;4.22;1.92;;;20.80;71.40;;;;;;6125945;23;20022;-74
2021/10/23 10:25:47;;;;;;;4.38;1.50;;;21.00;70.50;;;;;;6125320;23;20018;-71
2021/10/23 10:28:16;;;;;;;6.15;0.70;;;20.50;71.00;;;;;;6125210;23;20022;-72
2021/10/23 10:30:46;;;;;;;1.95;1.25;;;19.70;68.20;;;;;;6125179;23;20065;-75
2021/10/23 10:33:26;;;;;;;3.30;0.77;;;19.10;72.00;;;;;;6124881;23;20029;-75
2021/10/23 10:36:19;;;;;;;4.32;1.05;;;18.40;73.70;;;;;;6125978;23;20078;-72
2021/10/23 10:38:58;;;;;;;2.95;0.73;;;18.10;75.40;;;;;;6125056;23;20032;-71
2021/10/23 10:44:19;;;;;;;6.25;2.63;;;17.80;74.30;;;;;;6124652;23;20018;-72
2021/10/23 10:47:06;;;;;;;3.60;0.98;;;17.80;76.50;;;;;;6124451;23;20401;-70
2021/10/23 10:49:43;;;;;;;1.88;1.10;;;17.10;76.50;;;;;;6125061;23;20030;-71
2021/10/23 10:52:47;;;;;;;2.92;1.13;;;16.20;81.90;;;;;;6129857;23;20022;-72
2021/10/23 10:55:16;;;;;;;7.38;2.05;;;16.60;80.50;;;;;;6126777;23;20081;-71
2021/10/23 10:58:00;;;;;;;7.75;2.25;;;17.20;80.10;;;;;;6124959;23;20617;-71
2021/10/23 11:01:10;;;;;;;4.43;1.33;;;16.60;79.10;;;;;;6124733;23;20026;-72
2021/10/23 11:03:55;;;;;;;5.05;1.38;;;17.70;79.00;;;;;;6123988;23;20356;-71
2021/10/23 11:06:42;;;;;;;5.47;1.40;;;18.00;76.80;;;;;;6107125;23;20390;-72
2021/10/23 11:09:45;;;;;;;7.53;1.70;;;17.70;76.20;;;;;;6124824;23;20022;-75
2021/10/23 11:12:36;;;;;;;2.17;0.90;;;17.40;76.30;;;;;;6035203;23;20034;-71
2021/10/23 11:15:05;;;;;;;2.08;0.73;;;16.70;79.50;;;;;;6122201;23;20033;-74
2021/10/23 11:17:39;;;;;;;10.77;1.95;;;17.40;78.60;;;;;;6124945;23;20029;-70
2021/10/23 11:20:11;;;;;;;9.65;1.52;;;18.70;77.00;;;;;;6124783;23;20026;-70
2021/10/23 11:22:39;;;;;;;3.35;0.98;;;19.50;72.40;;;;;;6125009;23;20032;-70
2021/10/23 11:25:07;;;;;;;2.75;0.98;;;20.30;69.90;;;;;;6124350;23;20022;-71
2021/10/23 11:27:40;;;;;;;7.45;0.88;;;19.60;67.40;;;;;;6124576;23;20077;-74
2021/10/23 11:30:21;;;;;;;4.43;1.35;;;18.40;68.90;;;;;;6124652;23;20018;-70
2021/10/23 11:32:52;;;;;;;1.92;0.95;;;18.60;71.10;;;;;;6124961;23;20053;-71
2021/10/23 11:35:27;;;;;;;4.50;1.23;;;18.90;71.20;;;;;;6124004;23;20400;-73
2021/10/23 11:37:54;;;;;;;3.47;0.65;;;19.70;68.10;;;;;;6125395;23;20065;-71
2021/10/23 11:40:21;;;;;;;3.05;0.93;;;20.20;65.20;;;;;;6124379;23;20481;-71
2021/10/23 11:42:49;;;;;;;4.63;1.63;;;20.40;64.80;;;;;;6124586;23;20471;-74
2021/10/23 11:45:20;;;;;;;2.53;1.08;;;21.00;63.20;;;;;;6124246;23;20477;-77
2021/10/23 11:47:46;;;;;;;4.95;1.30;;;20.20;61.10;;;;;;6124616;23;20022;-72
2021/10/23 11:50:22;;;;;;;5.15;1.33;;;18.00;66.90;;;;;;6126552;23;20022;-71
2021/10/23 11:52:50;;;;;;;3.90;0.80;;;17.40;70.80;;;;;;6126662;23;20080;-70
2021/10/23 11:55:35;;;;;;;2.78;0.88;;;16.80;71.70;;;;;;6126570;23;20040;-70
2021/10/23 11:58:03;;;;;;;1.95;0.95;;;17.40;74.80;;;;;;6126604;23;20018;-70
2021/10/23 12:00:36;;;;;;;5.45;1.05;;;18.10;71.40;;;;;;6126145;23;20396;-70
2021/10/23 12:03:05;;;;;;;3.90;1.55;;;17.70;71.70;;;;;;6126592;23;20018;-71
2021/10/23 12:05:44;;;;;;;2.53;0.70;;;17.50;71.50;;;;;;6126537;23;20097;-73
2021/10/23 12:08:16;;;;;;;10.32;2.33;;;17.90;72.30;;;;;;6126235;23;20026;-74
2021/10/23 12:11:09;;;;;;;5.32;2.22;;;17.20;72.00;;;;;;6126820;23;20080;-74
2021/10/23 12:13:57;;;;;;;2.67;1.63;;;17.10;74.50;;;;;;6129900;23;20134;-75
2021/10/23 12:16:35;;;;;;;2.53;1.13;;;17.80;73.10;;;;;;6129251;23;20018;-72
2021/10/23 12:19:05;;;;;;;3.63;0.57;;;17.50;73.50;;;;;;6126388;23;20022;-76
2021/10/23 12:21:37;;;;;;;5.35;1.40;;;17.40;73.20;;;;;;6126383;23;20076;-72
2021/10/23 12:24:14;;;;;;;4.22;0.80;;;16.50;75.00;;;;;;6125888;23;20025;-72
2021/10/23 12:26:41;;;;;;;8.13;2.28;;;16.80;74.30;;;;;;6126132;23;20535;-74
2021/10/23 12:29:09;;;;;;;5.53;1.58;;;16.60;75.70;;;;;;6126133;23;20022;-72
2021/10/23 12:31:57;;;;;;;7.90;0.90;;;17.50;75.30;;;;;;6126458;23;20028;-70
2021/10/23 12:34:24;;;;;;;2.22;0.70;;;18.00;70.70;;;;;;6125581;23;20029;-71
2021/10/23 12:36:52;;;;;;;6.05;0.73;;;16.90;71.10;;;;;;6126232;23;20022;-71
2021/10/23 12:39:20;;;;;;;6.10;1.25;;;16.30;75.10;;;;;;6126123;23;20026;-70
2021/10/23 12:41:47;;;;;;;3.63;1.00;;;15.80;77.80;;;;;;6126320;23;20076;-71
2021/10/23 12:44:17;;;;;;;3.40;0.95;;;15.10;79.40;;;;;;6125789;23;20026;-79
2021/10/23 12:46:44;;;;;;;3.28;0.65;;;15.40;81.20;;;;;;6126183;23;20018;-71
2021/10/23 12:49:12;;;;;;;3.20;1.08;;;15.40;77.30;;;;;;6126105;23;20022;-71
2021/10/23 12:51:38;;;;;;;1.88;0.80;;;15.40;78.00;;;;;;6125811;23;20373;-71
2021/10/23 12:54:05;;;;;;;3.45;0.88;;;15.10;79.20;;;;;;6125204;23;20496;-71
2021/10/23 12:56:33;;;;;;;3.72;0.93;;;14.90;81.40;;;;;;6126060;23;20041;-70
2021/10/23 12:58:59;;;;;;;2.97;0.55;;;14.40;81.20;;;;;;6125721;23;20022;-77
2021/10/23 13:01:26;;;;;;;4.30;1.08;;;13.90;83.00;;;;;;6125833;23;20025;-72
2021/10/23 13:03:53;;;;;;;2.47;0.68;;;13.70;85.40;;;;;;6125694;23;20022;-72